Time,TemperatureF,DewpointF,PressureIn,WindDirection,WindDirectionDegrees,WindSpeedMPH,WindSpeedGustMPH,Humidity,HourlyPrecipIn,Conditions,Clouds,dailyrainin,SolarRadiationWatts/m^2,SoftwareType,DateUTC
2013-04-01 00:12:00,21.0,13.0,-100.00,NNW,331,11.0,17.0,71,0.00,,,0.00,0.000000,,2013-04-01 05:12:00,
2013-04-01 00:22:00,21.0,13.0,-100.00,NNW,331,11.0,17.0,71,0.00,,,0.00,0.000000,,2013-04-01 05:22:00,
2013-04-01 00:32:00,21.0,13.0,-100.00,NNW,331,11.0,17.0,71,0.00,,,0.00,0.000000,,2013-04-01 05:32:00,
2013-04-01 00:42:00,21.0,13.0,-100.00,NNW,331,11.0,17.0,71,0.00,,,0.00,0.000000,,2013-04-01 05:42:00,
2013-04-01 00:51:00,20.0,12.0,-100.00,NW,323,9.0,19.0,72,0.00,,,0.00,0.000000,,2013-04-01 05:51:00,
2013-04-01 01:12:00,20.0,12.0,-100.00,NW,323,9.0,19.0,72,0.00,,,0.00,0.000000,,2013-04-01 06:12:00,
2013-04-01 01:23:00,20.0,12.0,-100.00,NW,323,9.0,19.0,72,0.00,,,0.00,0.000000,,2013-04-01 06:23:00,
2013-04-01 01:33:00,20.0,12.0,-100.00,NW,323,9.0,19.0,72,0.00,,,0.00,0.000000,,2013-04-01 06:33:00,
2013-04-01 01:43:00,20.0,12.0,-100.00,NW,323,9.0,19.0,72,0.00,,,0.00,0.000000,,2013-04-01 06:43:00,
2013-04-01 01:51:00,19.0,11.0,-100.00,NW,325,7.0,14.0,72,0.00,,,0.00,0.000000,,2013-04-01 06:51:00,
2013-04-01 02:13:00,19.0,11.0,-100.00,NW,325,7.0,14.0,72,0.00,,,0.00,0.000000,,2013-04-01 07:13:00,
2013-04-01 02:22:00,19.0,11.0,-100.00,NW,325,7.0,14.0,72,0.00,,,0.00,0.000000,,2013-04-01 07:22:00,
2013-04-01 02:32:00,19.0,11.0,-100.00,NW,325,7.0,14.0,72,0.00,,,0.00,0.000000,,2013-04-01 07:32:00,
2013-04-01 02:42:00,19.0,11.0,-100.00,NW,325,7.0,14.0,72,0.00,,,0.00,0.000000,,2013-04-01 07:42:00,
2013-04-01 02:51:00,18.0,12.0,-100.00,NW,318,8.0,11.0,77,0.00,,,0.00,0.000000,,2013-04-01 07:51:00,
2013-04-01 03:12:00,18.0,12.0,-100.00,NW,318,8.0,11.0,77,0.00,,,0.00,0.000000,,2013-04-01 08:12:00,
2013-04-01 03:22:00,18.0,12.0,-100.00,NW,318,8.0,11.0,77,0.00,,,0.00,0.000000,,2013-04-01 08:22:00,
2013-04-01 03:32:00,18.0,12.0,-100.00,NW,318,8.0,11.0,77,0.00,,,0.00,0.000000,,2013-04-01 08:32:00,
2013-04-01 03:43:00,18.0,12.0,-100.00,NW,318,8.0,11.0,77,0.00,,,0.00,0.000000,,2013-04-01 08:43:00,
2013-04-01 03:51:00,17.0,11.0,-100.00,NW,318,8.0,12.0,76,0.00,,,0.00,0.000000,,2013-04-01 08:51:00,
2013-04-01 04:12:00,17.0,11.0,-100.00,NW,318,8.0,12.0,76,0.00,,,0.00,0.000000,,2013-04-01 09:12:00,
2013-04-01 04:22:00,17.0,11.0,-100.00,NW,318,8.0,12.0,76,0.00,,,0.00,0.000000,,2013-04-01 09:22:00,
2013-04-01 04:33:00,17.0,11.0,-100.00,NW,318,8.0,12.0,76,0.00,,,0.00,0.000000,,2013-04-01 09:33:00,
2013-04-01 04:42:00,17.0,11.0,-100.00,NW,318,8.0,12.0,76,0.00,,,0.00,0.000000,,2013-04-01 09:42:00,
2013-04-01 04:51:00,16.0,11.0,-100.00,WNW,296,6.0,13.0,79,0.00,,,0.00,0.000000,,2013-04-01 09:51:00,
2013-04-01 05:12:00,16.0,11.0,-100.00,WNW,296,6.0,13.0,79,0.00,,,0.00,0.000000,,2013-04-01 10:12:00,
2013-04-01 05:23:00,16.0,11.0,-100.00,WNW,296,6.0,13.0,79,0.00,,,0.00,0.000000,,2013-04-01 10:23:00,
2013-04-01 05:33:00,16.0,11.0,-100.00,WNW,296,6.0,13.0,79,0.00,,,0.00,0.000000,,2013-04-01 10:33:00,
2013-04-01 05:42:00,16.0,11.0,-100.00,WNW,296,6.0,13.0,79,0.00,,,0.00,0.000000,,2013-04-01 10:42:00,
2013-04-01 05:51:00,16.0,11.0,-100.00,NW,313,7.0,10.0,79,0.00,,,0.00,0.000000,,2013-04-01 10:51:00,
2013-04-01 06:13:00,16.0,11.0,-100.00,NW,313,7.0,10.0,79,0.00,,,0.00,0.000000,,2013-04-01 11:13:00,
2013-04-01 06:23:00,16.0,11.0,-100.00,NW,313,7.0,10.0,79,0.00,,,0.00,0.000000,,2013-04-01 11:23:00,
2013-04-01 06:33:00,16.0,11.0,-100.00,NW,313,7.0,10.0,79,0.00,,,0.00,0.000000,,2013-04-01 11:33:00,
2013-04-01 06:42:00,16.0,11.0,-100.00,NW,313,7.0,10.0,79,0.00,,,0.00,0.000000,,2013-04-01 11:42:00,
2013-04-01 06:51:00,16.0,10.0,-100.00,NW,320,8.0,12.0,78,0.00,,,0.00,0.000000,,2013-04-01 11:51:00,
2013-04-01 07:12:00,16.0,10.0,-100.00,NW,320,8.0,12.0,78,0.00,,,0.00,0.000000,,2013-04-01 12:12:00,
2013-04-01 07:23:00,16.0,10.0,-100.00,NW,320,8.0,12.0,78,0.00,,,0.00,0.000000,,2013-04-01 12:23:00,
2013-04-01 07:32:00,16.0,10.0,-100.00,NW,320,8.0,12.0,78,0.00,,,0.00,0.000000,,2013-04-01 12:32:00,
2013-04-01 07:42:00,16.0,10.0,-100.00,NW,320,8.0,12.0,78,0.00,,,0.00,0.000000,,2013-04-01 12:42:00,
2013-04-01 07:51:00,17.0,10.0,-100.00,NNW,334,8.0,12.0,73,0.00,,,0.00,31.000000,,2013-04-01 12:51:00,
2013-04-01 08:12:00,17.0,10.0,-100.00,NNW,334,8.0,12.0,73,0.00,,,0.00,31.000000,,2013-04-01 13:12:00,
2013-04-01 08:22:00,17.0,10.0,-100.00,NNW,334,8.0,12.0,73,0.00,,,0.00,31.000000,,2013-04-01 13:22:00,
2013-04-01 08:32:00,17.0,10.0,-100.00,NNW,334,8.0,12.0,73,0.00,,,0.00,31.000000,,2013-04-01 13:32:00,
2013-04-01 08:42:00,17.0,10.0,-100.00,NNW,334,8.0,12.0,73,0.00,,,0.00,31.000000,,2013-04-01 13:42:00,
2013-04-01 08:51:00,20.0,11.0,-100.00,NW,311,10.0,13.0,68,0.00,,,0.00,207.000000,,2013-04-01 13:51:00,
2013-04-01 09:22:00,20.0,11.0,-100.00,NW,311,10.0,13.0,68,0.00,,,0.00,207.000000,,2013-04-01 14:22:00,
2013-04-01 09:33:00,20.0,11.0,-100.00,NW,311,10.0,13.0,68,0.00,,,0.00,207.000000,,2013-04-01 14:33:00,
2013-04-01 09:42:00,20.0,11.0,-100.00,NW,311,10.0,13.0,68,0.00,,,0.00,207.000000,,2013-04-01 14:42:00,
2013-04-01 09:51:00,23.0,12.0,-100.00,WNW,302,10.0,14.0,63,0.00,,,0.00,411.000000,,2013-04-01 14:51:00,
2013-04-01 10:13:00,23.0,12.0,-100.00,WNW,302,10.0,14.0,63,0.00,,,0.00,411.000000,,2013-04-01 15:13:00,
2013-04-01 10:22:00,23.0,12.0,-100.00,WNW,302,10.0,14.0,63,0.00,,,0.00,411.000000,,2013-04-01 15:22:00,
2013-04-01 10:34:00,23.0,12.0,-100.00,WNW,302,10.0,14.0,63,0.00,,,0.00,411.000000,,2013-04-01 15:34:00,
2013-04-01 10:43:00,23.0,12.0,-100.00,WNW,302,10.0,14.0,63,0.00,,,0.00,411.000000,,2013-04-01 15:43:00,
2013-04-01 10:51:00,26.0,14.0,-100.00,NW,315,9.0,14.0,60,0.00,,,0.00,603.000000,,2013-04-01 15:51:00,
2013-04-01 11:23:00,26.0,14.0,-100.00,NW,315,9.0,14.0,60,0.00,,,0.00,603.000000,,2013-04-01 16:23:00,
2013-04-01 11:33:00,26.0,14.0,-100.00,NW,315,9.0,14.0,60,0.00,,,0.00,603.000000,,2013-04-01 16:33:00,
2013-04-01 11:42:00,26.0,14.0,-100.00,NW,315,9.0,14.0,60,0.00,,,0.00,603.000000,,2013-04-01 16:42:00,
2013-04-01 12:51:00,28.0,15.0,-100.00,NW,308,11.0,15.0,57,-99.99,,,0.00,861.000000,,2013-04-01 17:51:00,
2013-04-01 13:12:00,28.0,15.0,-100.00,NW,308,11.0,15.0,57,-99.99,,,0.00,861.000000,,2013-04-01 18:12:00,
2013-04-01 13:22:00,28.0,15.0,-100.00,NW,308,11.0,15.0,57,-99.99,,,0.00,861.000000,,2013-04-01 18:22:00,
2013-04-01 13:32:00,28.0,15.0,-100.00,NW,308,11.0,15.0,57,-99.99,,,0.00,861.000000,,2013-04-01 18:32:00,
2013-04-01 13:42:00,28.0,15.0,-100.00,NW,308,11.0,15.0,57,-99.99,,,0.00,861.000000,,2013-04-01 18:42:00,
2013-04-01 13:51:00,29.0,14.0,-100.00,NNW,333,12.0,17.0,52,0.00,,,0.00,906.000000,,2013-04-01 18:51:00,
2013-04-01 14:13:00,29.0,14.0,-100.00,NNW,333,12.0,17.0,52,0.00,,,0.00,906.000000,,2013-04-01 19:13:00,
2013-04-01 14:23:00,29.0,14.0,-100.00,NNW,333,12.0,17.0,52,0.00,,,0.00,906.000000,,2013-04-01 19:23:00,
2013-04-01 14:32:00,29.0,14.0,-100.00,NNW,333,12.0,17.0,52,0.00,,,0.00,906.000000,,2013-04-01 19:32:00,
2013-04-01 14:42:00,29.0,14.0,-100.00,NNW,333,12.0,17.0,52,0.00,,,0.00,906.000000,,2013-04-01 19:42:00,
2013-04-01 14:51:00,30.0,17.0,-100.00,NW,320,11.0,17.0,58,0.00,,,0.00,887.000000,,2013-04-01 19:51:00,
2013-04-01 15:22:00,30.0,17.0,-100.00,NW,320,11.0,17.0,58,0.00,,,0.00,887.000000,,2013-04-01 20:22:00,
2013-04-01 15:32:00,30.0,17.0,-100.00,NW,320,11.0,17.0,58,0.00,,,0.00,887.000000,,2013-04-01 20:32:00,
2013-04-01 15:42:00,30.0,17.0,-100.00,NW,320,11.0,17.0,58,0.00,,,0.00,887.000000,,2013-04-01 20:42:00,
2013-04-01 15:51:00,30.0,16.0,-100.00,NNW,328,11.0,16.0,55,0.00,,,0.00,806.000000,,2013-04-01 20:51:00,
2013-04-01 16:23:00,30.0,16.0,-100.00,NNW,328,11.0,16.0,55,0.00,,,0.00,806.000000,,2013-04-01 21:23:00,
2013-04-01 16:32:00,30.0,16.0,-100.00,NNW,328,11.0,16.0,55,0.00,,,0.00,806.000000,,2013-04-01 21:32:00,
2013-04-01 16:43:00,30.0,16.0,-100.00,NNW,328,11.0,16.0,55,0.00,,,0.00,806.000000,,2013-04-01 21:43:00,
2013-04-01 16:51:00,30.0,15.0,-100.00,NNW,331,9.0,16.0,54,0.00,,,0.00,669.000000,,2013-04-01 21:51:00,
2013-04-01 17:12:00,30.0,15.0,-100.00,NNW,331,9.0,16.0,54,0.00,,,0.00,669.000000,,2013-04-01 22:12:00,
2013-04-01 17:22:00,30.0,15.0,-100.00,NNW,331,9.0,16.0,54,0.00,,,0.00,669.000000,,2013-04-01 22:22:00,
2013-04-01 17:33:00,30.0,15.0,-100.00,NNW,331,9.0,16.0,54,0.00,,,0.00,669.000000,,2013-04-01 22:33:00,
2013-04-01 17:43:00,30.0,15.0,-100.00,NNW,331,9.0,16.0,54,0.00,,,0.00,669.000000,,2013-04-01 22:43:00,
2013-04-01 17:51:00,30.0,15.0,-100.00,NNW,338,9.0,15.0,53,0.00,,,0.00,487.000000,,2013-04-01 22:51:00,
2013-04-01 18:23:00,30.0,15.0,-100.00,NNW,338,9.0,15.0,53,0.00,,,0.00,487.000000,,2013-04-01 23:23:00,
2013-04-01 18:32:00,30.0,15.0,-100.00,NNW,338,9.0,15.0,53,0.00,,,0.00,487.000000,,2013-04-01 23:32:00,
2013-04-01 18:43:00,30.0,15.0,-100.00,NNW,338,9.0,15.0,53,0.00,,,0.00,487.000000,,2013-04-01 23:43:00,
2013-04-01 18:51:00,29.0,16.0,-100.00,NNW,344,10.0,14.0,58,0.00,,,0.00,281.000000,,2013-04-01 23:51:00,
2013-04-01 19:12:00,29.0,16.0,-100.00,NNW,344,10.0,14.0,58,0.00,,,0.00,281.000000,,2013-04-02 00:12:00,
2013-04-01 19:22:00,29.0,16.0,-100.00,NNW,344,10.0,14.0,58,0.00,,,0.00,281.000000,,2013-04-02 00:22:00,
2013-04-01 19:33:00,29.0,16.0,-100.00,NNW,344,10.0,14.0,58,0.00,,,0.00,281.000000,,2013-04-02 00:33:00,
2013-04-01 19:42:00,29.0,16.0,-100.00,NNW,344,10.0,14.0,58,0.00,,,0.00,281.000000,,2013-04-02 00:42:00,
2013-04-01 19:51:00,26.0,17.0,-100.00,North,350,6.0,11.0,68,0.00,,,0.00,80.000000,,2013-04-02 00:51:00,
2013-04-01 20:12:00,26.0,17.0,-100.00,North,350,6.0,11.0,68,0.00,,,0.00,80.000000,,2013-04-02 01:12:00,
2013-04-01 20:22:00,26.0,17.0,-100.00,North,350,6.0,11.0,68,0.00,,,0.00,80.000000,,2013-04-02 01:22:00,
2013-04-01 20:32:00,26.0,17.0,-100.00,North,350,6.0,11.0,68,0.00,,,0.00,80.000000,,2013-04-02 01:32:00,
2013-04-01 20:42:00,26.0,17.0,-100.00,North,350,6.0,11.0,68,0.00,,,0.00,80.000000,,2013-04-02 01:42:00,
2013-04-01 20:51:00,23.0,17.0,-100.00,NW,323,3.0,8.0,77,0.00,,,0.00,2.000000,,2013-04-02 01:51:00,
2013-04-01 21:22:00,23.0,17.0,-100.00,NW,323,3.0,8.0,77,0.00,,,0.00,2.000000,,2013-04-02 02:22:00,
2013-04-01 21:32:00,23.0,17.0,-100.00,NW,323,3.0,8.0,77,0.00,,,0.00,2.000000,,2013-04-02 02:32:00,
2013-04-01 21:42:00,23.0,17.0,-100.00,NW,323,3.0,8.0,77,0.00,,,0.00,2.000000,,2013-04-02 02:42:00,
2013-04-01 21:51:00,19.0,16.0,-100.00,NNW,337,1.0,4.0,88,0.00,,,0.00,0.000000,,2013-04-02 02:51:00,
2013-04-01 22:12:00,19.0,16.0,-100.00,NNW,337,1.0,4.0,88,0.00,,,0.00,0.000000,,2013-04-02 03:12:00,
2013-04-01 22:22:00,19.0,16.0,-100.00,NNW,337,1.0,4.0,88,0.00,,,0.00,0.000000,,2013-04-02 03:22:00,
2013-04-01 22:33:00,19.0,16.0,-100.00,NNW,337,1.0,4.0,88,0.00,,,0.00,0.000000,,2013-04-02 03:33:00,
2013-04-01 22:43:00,19.0,16.0,-100.00,NNW,337,1.0,4.0,88,0.00,,,0.00,0.000000,,2013-04-02 03:43:00,
2013-04-01 22:51:00,18.0,16.0,-100.00,WSW,243,2.0,4.0,93,0.00,,,0.00,0.000000,,2013-04-02 03:51:00,
2013-04-01 23:23:00,18.0,16.0,-100.00,WSW,243,2.0,4.0,93,0.00,,,0.00,0.000000,,2013-04-02 04:23:00,
2013-04-01 23:32:00,18.0,16.0,-100.00,WSW,243,2.0,4.0,93,0.00,,,0.00,0.000000,,2013-04-02 04:32:00,
2013-04-01 23:43:00,18.0,16.0,-100.00,WSW,243,2.0,4.0,93,0.00,,,0.00,0.000000,,2013-04-02 04:43:00,
2013-04-01 23:51:00,17.0,16.0,-100.00,SW,235,3.0,3.0,94,0.00,,,0.00,0.000000,,2013-04-02 04:51:00,